Nearby METAR Reports

CWGD - Goderich (autob), Ontario, Canada
Distance from station: SW 47km
Updated: 02/20/2020 3:00pm

 Wind from NNW
Wind: NNW 20 km/h, Gust: 31 km/h
Temperature: -8°C
Wind Chill: -15°C
Dew Point: -10°C
Humidity: 86%
2020/02/20 20:00 CWGD 202000Z AUTO 33011G17KT M08/M10 RMK AO1 3PAST HR 6006 PK WND 33017/1954 SLP361 P0001 T10751101 50007
CWLS - Mount Forest(Mar, Ontario, Canada
Distance from station: ESE 53km
Updated: 02/20/2020 3:00pm

 Wind from NNW
Wind: NNW 13 km/h
Temperature: -10°C
Wind Chill: -16°C
Dew Point: -14°C
Humidity: 73%
2020/02/20 20:00 CWLS 202000Z AUTO 33007KT M10/M14 RMK AO1 SOG 26 6008 SLP346 T10981135
 
CYVV - Wiarton Air, Ontario, Canada
Distance from station: NNE 75km
Updated: 02/20/2020 3:00pm
Few Clouds
Few Clouds
 Wind from WNW
Wind: WNW 15 km/h
Temperature: -9°C
Wind Chill: -15°C
Dew Point: -18°C
Humidity: 48%
Barometer: 1032.8 hPa
Clouds: Few Clouds
Visibility: 24 km
Cloud details: Few Clouds 610 m
2020/02/20 20:00 CYVV 202000Z 29008KT 260V330 15SM FEW020 M09/M18 A3050 RMK SC1 SLP345
CZEL - Elora Rcs, Ontario, Canada
Distance from station: ESE 93km
Updated: 02/20/2020 3:00pm

 Wind from NW
Wind: NW 13 km/h
Temperature: -8°C
Wind Chill: -13°C
Dew Point: -16°C
Humidity: 53%
2020/02/20 20:00 CZEL 202000Z AUTO 31007KT M08/M16 RMK AO1 SOG 19 6007 SLP346 T10811157
 
CWCO - Collingwood (aut, Ontario, Canada
Distance from station: ENE 104km
Updated: 02/20/2020 3:00pm

 Wind from NNW
Wind: NNW 19 km/h
Temperature: -9°C
Wind Chill: -16°C
Dew Point: -11°C
Humidity: 86%
2020/02/20 20:00 CWCO 202000Z AUTO 33010KT M09/M11 RMK AO1 SLP346 T10871108 56010
CYKF - Waterloo Well, Ontario, Canada
Distance from station: SE 107km
Updated: 02/20/2020 3:00pm
Mostly cloudy
Mostly cloudy
 Wind from NW
Wind: NW 19 km/h
Temperature: -7°C
Wind Chill: -14°C
Dew Point: -15°C
Humidity: 53%
Barometer: 1031.5 hPa
Clouds: Mostly cloudy
Visibility: 14 km
Cloud details: Mostly cloudy 1463 m
2020/02/20 20:00 CYKF 202000Z AUTO 32010KT 9SM BKN048 M07/M15 A3046 RMK ICG SLP338
 
KP58 - Port Hope, Michigan, USA
Distance from station: W 114km
Updated: 02/20/2020 2:51pm

 Wind from WNW
Wind: WNW 15 km/h
Temperature: -7°C
Wind Chill: -13°C
Dew Point: -14°C
Humidity: 58%
Barometer: 1034.2 hPa
2020/02/20 19:51 KP58 201951Z AUTO 29008KT M07/M14 A3054 RMK AO1 SLP361 T10671139
CYBN - Borden, Ontario, Canada
Distance from station: E 118km
Updated: 02/20/2020 3:23pm
Mostly cloudy
Mostly cloudy
 Wind from NW
Wind: NW 11 km/h
Temperature: -9°C
Wind Chill: -14°C
Dew Point: -14°C
Humidity: 67%
Barometer: 1032.2 hPa
Clouds: Mostly cloudy
Visibility: 14 km
Cloud details: Mostly cloudy 579 m
Mostly cloudy 1219 m
2020/02/20 20:23 CYBN 202023Z AUTO 32006KT 280V010 9SM BKN019 BKN040 M09/M14 A3048
 
CYXU - London Airport, Ontario, Canada
Distance from station: S 123km
Updated: 02/20/2020 3:00pm
Mostly cloudy
Mostly cloudy
 Wind from WNW
Wind: WNW 19 km/h
Temperature: -6°C
Wind Chill: -13°C
Dew Point: -14°C
Humidity: 54%
Barometer: 1032.8 hPa
Clouds: Mostly cloudy
Visibility: 24 km
Cloud details: Few Clouds 640 m
Mostly cloudy 1372 m
2020/02/20 20:00 CYXU 202000Z 29010KT 15SM FEW021 BKN045 M06/M14 A3050 RMK SC2SC5 SLP348
CXET - Egbert Cs, Ontario, Canada
Distance from station: E 128km
Updated: 02/20/2020 3:00pm

 Wind from NNW
Wind: NNW 13 km/h
Temperature: -9°C
Wind Chill: -15°C
Dew Point: -14°C
Humidity: 67%
2020/02/20 20:00 CXET 202000Z AUTO 33007KT M09/M14 RMK AO1 SOG 20 6011 SLP341 T10851144
 
CWMZ - Western Isl (map, Ontario, Canada
Distance from station: NE 129km
Updated: 02/20/2020 3:00pm

 Wind from NW
Wind: NW 22 km/h
Temperature: -11°C
Wind Chill: -20°C
Dew Point: -15°C
Humidity: 73%
2020/02/20 20:00 CWMZ 202000Z AUTO 32012KT M11/M15 RMK AO1 PK WND 31017/1935 SLP337 T11111149 56017
KBAX - Bad Axe, Michigan, USA
Distance from station: WSW 133km
Updated: 02/20/2020 3:35pm
Overcast
Overcast
 Wind from W
Wind: W 19 km/h
Temperature: -7°C
Wind Chill: -14°C
Dew Point: -15°C
Humidity: 53%
Barometer: 1034.2 hPa
Clouds: Overcast
Visibility: 16 km
Cloud details: Overcast 1097 m
2020/02/20 20:35 KBAX 202035Z AUTO 28010KT 10SM OVC036 M07/M15 A3054 RMK AO2 T10661147
 
CWWX - Cove Island (map, Ontario, Canada
Distance from station: NNW 137km
Updated: 02/20/2020 3:00pm

 Wind from NNW
Wind: NNW 22 km/h
Temperature: -9°C
Wind Chill: -17°C
Dew Point: -15°C
Humidity: 62%
2020/02/20 20:00 CWWX 202000Z AUTO 33012KT M09/M15 RMK AO1 SLP339 T10931148 56022
CYZR - Sarnia Airport, Ontario, Canada
Distance from station: SSW 144km
Updated: 02/20/2020 3:00pm
Mostly cloudy
Mostly cloudy
 Wind from N
Wind: N 19 km/h, Gust: 30 km/h
Temperature: -6°C
Wind Chill: -13°C
Dew Point: -15°C
Humidity: 49%
Barometer: 1034.9 hPa
Clouds: Mostly cloudy
Visibility: 14 km
Cloud details: Mostly cloudy 1250 m
2020/02/20 20:00 CYZR 202000Z AUTO 35010G16KT 9SM BKN041 M06/M15 A3056 RMK SLP361
 
CXHM - Hamilton Rbg Cs, Ontario, Canada
Distance from station: SE 150km
Updated: 02/20/2020 3:00pm

 Wind from WNW
Wind: WNW 15 km/h
2020/02/20 20:00 CXHM 202000Z AUTO 29008KT RMK AO1 56009
CYYZ - Toronto/Pearson, Ontario, Canada
Distance from station: ESE 150km
Updated: 02/20/2020 3:00pm
Mostly cloudy
Mostly cloudy
 Wind from N
Wind: N 7 km/h, Gust: 30 km/h
Temperature: -6°C
Wind Chill: -10°C
Dew Point: -13°C
Humidity: 58%
Barometer: 1032.2 hPa
Clouds: Mostly cloudy
Visibility: 24 km
Cloud details: Few Clouds 1067 m
Mostly cloudy 1372 m
2020/02/20 20:00 CYYZ 202000Z 01004G16KT 320V080 15SM FEW035 BKN045 M06/M13 A3048 RMK CU2SC3 SH DIST ALQDS SLP335
 
CXBI - Barrie-Oro, Ontario, Canada
Distance from station: ENE 151km
Updated: 02/20/2020 3:00pm

 Wind from WNW
Wind: WNW 24 km/h
Temperature: -9°C
Wind Chill: -17°C
Dew Point: -15°C
Humidity: 62%
2020/02/20 20:00 CXBI 202000Z AUTO 29013KT M09/M15 RMK AO1 PK WND 30018/1940 SLP335 T10931150 56011
CXDI - Delhi Cs (aut), Ontario, Canada
Distance from station: SSE 154km
Updated: 02/20/2020 3:00pm

 Wind from NW
Wind: NW 15 km/h
Temperature: -6°C
Wind Chill: -12°C
Dew Point: -14°C
Humidity: 54%
2020/02/20 20:00 CXDI 202000Z AUTO 31008KT M06/M14 RMK AO1 SLP352 T10551140 56007
 
CWWB - Burlington Piers, Ontario, Canada
Distance from station: SE 157km
Updated: 02/20/2020 3:00pm

 Wind from W
Wind: W 20 km/h, Gust: 33 km/h
Temperature: -4°C
Wind Chill: -11°C
Dew Point: -15°C
Humidity: 42%
2020/02/20 20:00 CWWB 202000Z AUTO 28011G18KT M04/M15 RMK AO1 PK WND 28019/1903 SLP336 T10431152 56009
CYHM - Hamilton Airport, Ontario, Canada
Distance from station: SE 157km
Updated: 02/20/2020 3:15pm
Light snow, Showers, Mostly cloudy
Light snow, Showers, Mostly cloudy
 Wind from NW
Wind: NW 20 km/h
Temperature: -5°C
Wind Chill: -12°C
Dew Point: -14°C
Humidity: 50%
Barometer: 1032.2 hPa
Summary: Light snow, Showers
Clouds: Mostly cloudy
Visibility: 24 km
Cloud details: Few Clouds 762 m
Mostly cloudy 1067 m
2020/02/20 20:15 CYHM 202015Z 32011KT 250V330 15SM -SHSN FEW025 BKN035 M05/M14 A3048 RMK CU2SC5 SLP337